Ammanford, United Kingdom
Current Conditions -  °F | °C
As of 11:50 PM on Saturday 25 Oct 2014 (Local Time) from EGOP Reporting Station
Broken Clouds Broken Clouds  
Wind Chill: 57°   Ceiling: 3400
Heat Index: 57°   Visibility: 6mi
Dew Point: 54°   Wind: 29mph
Humidity: 88%   Direction: 230°SW
Pressure: 30.09"   Gusts: NA
Location:  51.79°N, 3.99°W
Report Text: EGOP 252250Z AUTO 23025KT 9999 // BKN034/// 14/12 Q1019
Loading
Personal Weather Stations






























Interactive Weather Map
Tropical Storm Tracking
New forecast layout! Learn more

10-Day Weather Forecast

Advertisements
Track Severe Weather on mobile